createdAt,value
2018-07-25T00:00:42.424Z,9.53
2018-07-25T00:03:10.984Z,10.50
2018-07-25T00:05:39.440Z,10.70
2018-07-25T00:08:08.622Z,10.43
2018-07-25T00:10:42.539Z,10.50
2018-07-25T00:13:11.013Z,10.90
2018-07-25T00:15:39.501Z,9.90
2018-07-25T00:18:08.603Z,9.93
2018-07-25T00:20:37.604Z,10.40
2018-07-25T00:23:06.276Z,10.50
2018-07-25T00:25:34.442Z,9.63
2018-07-25T00:28:02.884Z,10.70
2018-07-25T00:30:31.357Z,10.67
2018-07-25T00:32:59.771Z,11.07
2018-07-25T00:35:28.296Z,11.30
2018-07-25T00:37:56.749Z,10.13
2018-07-25T00:40:25.227Z,10.57
2018-07-25T00:42:53.806Z,11.20
2018-07-25T00:45:22.284Z,9.90
2018-07-25T00:47:50.756Z,10.53
2018-07-25T00:50:19.207Z,10.23
2018-07-25T00:52:48.004Z,10.60
2018-07-25T00:55:16.486Z,10.43
2018-07-25T00:57:44.934Z,10.60
2018-07-25T01:00:13.497Z,11.40
2018-07-25T01:02:42.058Z,11.07
2018-07-25T01:05:10.633Z,11.40
2018-07-25T01:07:39.122Z,9.73
2018-07-25T01:10:07.681Z,10.37
2018-07-25T01:12:36.168Z,11.30
2018-07-25T01:15:05.527Z,10.10
2018-07-25T01:17:33.689Z,11.50
2018-07-25T01:20:02.228Z,9.80
2018-07-25T01:22:31.386Z,10.07
2018-07-25T01:24:59.956Z,11.17
2018-07-25T01:27:28.492Z,10.00
2018-07-25T01:29:56.944Z,10.93
2018-07-25T01:32:25.444Z,10.60
2018-07-25T01:34:54.378Z,11.43
2018-07-25T01:37:22.852Z,9.97
2018-07-25T01:39:51.346Z,10.53
2018-07-25T01:42:19.914Z,11.70
2018-07-25T01:44:48.628Z,11.73
2018-07-25T01:47:17.128Z,11.37
2018-07-25T01:49:45.596Z,11.73
2018-07-25T01:52:14.044Z,10.23
2018-07-25T01:54:42.810Z,12.10
2018-07-25T01:57:11.404Z,11.30
2018-07-25T01:59:39.985Z,11.73
2018-07-25T02:02:08.479Z,10.40
2018-07-25T02:04:37.657Z,11.77
2018-07-25T02:07:06.200Z,10.33
2018-07-25T02:09:34.383Z,11.67
2018-07-25T02:12:02.956Z,10.70
2018-07-25T02:14:31.416Z,11.17
2018-07-25T02:16:59.833Z,11.43
2018-07-25T02:19:28.692Z,11.10
2018-07-25T02:21:57.140Z,12.43
2018-07-25T02:24:25.664Z,11.67
2018-07-25T02:26:54.166Z,11.30
2018-07-25T02:29:22.666Z,11.50
2018-07-25T02:31:51.205Z,11.40
2018-07-25T02:34:22.463Z,10.33
2018-07-25T02:36:51.685Z,11.47
2018-07-25T02:39:20.193Z,11.27
2018-07-25T02:41:48.641Z,11.20
2018-07-25T02:44:17.106Z,11.70
2018-07-25T02:46:45.391Z,12.20
2018-07-25T02:49:13.836Z,10.73
2018-07-25T02:51:43.057Z,11.60
2018-07-25T02:54:11.561Z,12.37
2018-07-25T02:56:40.093Z,11.80
2018-07-25T02:59:08.630Z,12.67
2018-07-25T03:01:37.141Z,11.70
2018-07-25T03:04:05.644Z,11.37
2018-07-25T03:06:34.229Z,11.73
2018-07-25T03:09:02.834Z,11.33
2018-07-25T03:11:31.249Z,11.83
2018-07-25T03:13:59.772Z,11.50
2018-07-25T03:16:28.417Z,12.07
2018-07-25T03:18:56.904Z,12.03
2018-07-25T03:21:25.409Z,11.87
2018-07-25T03:23:53.884Z,12.33
2018-07-25T03:26:22.347Z,12.37
2018-07-25T03:28:50.882Z,13.23
2018-07-25T03:31:19.464Z,11.97
2018-07-25T03:33:47.824Z,12.30
2018-07-25T03:36:16.319Z,13.00
2018-07-25T03:38:44.783Z,11.90
2018-07-25T03:41:13.260Z,12.10
2018-07-25T03:43:41.659Z,12.50
2018-07-25T03:46:10.120Z,12.03
2018-07-25T03:48:38.648Z,11.57
2018-07-25T03:51:07.110Z,11.60
2018-07-25T03:53:35.533Z,12.30
2018-07-25T03:56:04.100Z,11.13
2018-07-25T03:58:32.556Z,12.70
2018-07-25T04:01:01.035Z,13.17
2018-07-25T04:03:29.524Z,12.80
2018-07-25T04:05:58.011Z,12.87
2018-07-25T04:08:26.517Z,12.80
2018-07-25T04:10:54.973Z,13.30
2018-07-25T04:13:23.476Z,12.67
2018-07-25T04:15:51.905Z,12.87
2018-07-25T04:18:20.441Z,13.97
2018-07-25T04:20:48.962Z,14.90
2018-07-25T04:23:17.404Z,14.20
2018-07-25T04:25:45.871Z,14.93
2018-07-25T04:28:14.361Z,14.07
2018-07-25T04:30:42.512Z,12.93
2018-07-25T04:33:10.972Z,14.03
2018-07-25T04:35:39.602Z,13.50
2018-07-25T04:38:08.038Z,13.37
2018-07-25T04:40:37.400Z,13.63
2018-07-25T04:43:05.873Z,14.60
2018-07-25T04:45:34.460Z,14.60
2018-07-25T04:48:03.046Z,14.50
2018-07-25T04:50:31.651Z,14.27
2018-07-25T04:53:00.113Z,15.10
2018-07-25T04:55:28.629Z,13.73
2018-07-25T04:57:57.069Z,13.97
2018-07-25T05:00:25.581Z,14.23
2018-07-25T05:02:54.236Z,14.40
2018-07-25T05:05:22.712Z,14.73
2018-07-25T05:07:51.117Z,14.47
2018-07-25T05:10:19.600Z,14.90
2018-07-25T05:12:47.797Z,15.17
2018-07-25T05:15:16.315Z,15.00
2018-07-25T05:17:44.815Z,14.73
2018-07-25T05:20:13.250Z,15.83
2018-07-25T05:22:41.757Z,14.80
2018-07-25T05:25:10.236Z,13.87
2018-07-25T05:27:38.740Z,14.40
2018-07-25T05:30:07.311Z,13.40
2018-07-25T05:32:35.769Z,13.03
2018-07-25T05:35:04.561Z,12.50
2018-07-25T05:37:33.096Z,13.70
2018-07-25T05:40:01.538Z,14.30
2018-07-25T05:42:30.135Z,12.50
2018-07-25T05:44:58.612Z,13.67
2018-07-25T05:47:27.068Z,12.60
2018-07-25T05:49:55.644Z,12.90
2018-07-25T06:05:28.563Z,12.30
2018-07-25T06:07:57.152Z,11.90
2018-07-25T06:10:25.644Z,13.07
2018-07-25T06:12:54.822Z,12.10
2018-07-25T06:15:23.480Z,13.00
2018-07-25T06:17:51.939Z,12.50
2018-07-25T06:20:20.474Z,12.10
2018-07-25T06:22:49.061Z,11.10
2018-07-25T06:25:18.170Z,12.30
2018-07-25T06:27:47.125Z,11.07
2018-07-25T06:30:15.607Z,10.80
2018-07-25T06:32:44.055Z,11.00
2018-07-25T06:35:12.580Z,10.87
2018-07-25T06:37:41.742Z,10.07
2018-07-25T06:40:10.246Z,9.73
2018-07-25T06:42:39.360Z,9.50
2018-07-25T06:45:07.969Z,9.77
2018-07-25T06:47:36.710Z,9.13
2018-07-25T06:50:06.537Z,9.60
2018-07-25T06:52:36.086Z,9.63
2018-07-25T06:55:04.573Z,8.97
2018-07-25T06:57:33.213Z,8.93
2018-07-25T07:00:01.764Z,9.13
2018-07-25T07:02:30.284Z,9.67
2018-07-25T07:04:59.288Z,9.73
2018-07-25T07:07:27.852Z,10.13
2018-07-25T07:09:56.585Z,8.20
2018-07-25T07:12:25.105Z,8.83
2018-07-25T07:14:53.608Z,8.97
2018-07-25T07:17:22.247Z,9.40
2018-07-25T07:19:50.925Z,9.03
2018-07-25T07:22:19.455Z,8.77
2018-07-25T07:24:48.065Z,9.60
2018-07-25T07:27:16.528Z,11.07
2018-07-25T07:29:44.976Z,12.00
2018-07-25T07:32:13.432Z,10.90
2018-07-25T07:34:41.909Z,11.50
2018-07-25T07:37:10.523Z,11.33
2018-07-25T07:39:39.025Z,8.27
2018-07-25T07:42:07.708Z,8.03
2018-07-25T07:44:36.265Z,7.80
2018-07-25T07:47:05.087Z,7.03
2018-07-25T07:49:33.530Z,6.93
2018-07-25T07:52:02.123Z,7.03
2018-07-25T07:54:30.588Z,6.50
2018-07-25T07:56:59.372Z,6.30
2018-07-25T07:59:28.605Z,6.10
2018-07-25T08:01:57.171Z,7.03
2018-07-25T08:04:25.684Z,5.90
2018-07-25T08:06:54.196Z,6.17
2018-07-25T08:09:23.409Z,6.70
2018-07-25T08:11:51.956Z,5.63
2018-07-25T08:14:20.416Z,6.20
2018-07-25T08:16:48.897Z,6.13
2018-07-25T08:19:17.796Z,6.63
2018-07-25T08:21:46.258Z,6.20
2018-07-25T08:24:14.740Z,6.90
2018-07-25T08:26:43.212Z,5.67
2018-07-25T08:29:11.752Z,6.20
2018-07-25T08:31:40.307Z,6.37
2018-07-25T08:34:08.845Z,5.73
2018-07-25T08:36:37.446Z,5.57
2018-07-25T08:39:08.684Z,5.50
2018-07-25T08:41:37.248Z,6.17
2018-07-25T08:44:06.795Z,5.50
2018-07-25T08:46:34.968Z,5.93
2018-07-25T08:49:03.403Z,5.40
2018-07-25T08:51:32.608Z,5.67
2018-07-25T08:54:01.062Z,5.73
2018-07-25T08:56:29.545Z,5.50
2018-07-25T08:58:57.976Z,5.27
2018-07-25T09:01:26.131Z,5.30
2018-07-25T09:03:54.665Z,5.30
2018-07-25T09:06:23.193Z,5.53
2018-07-25T09:08:51.686Z,5.47
2018-07-25T09:11:26.200Z,5.57
2018-07-25T09:13:54.910Z,5.43
2018-07-25T09:16:23.340Z,5.50
2018-07-25T09:18:51.930Z,5.47
2018-07-25T09:21:20.372Z,5.23
2018-07-25T09:23:48.860Z,4.97
2018-07-25T09:26:17.354Z,5.40
2018-07-25T09:28:46.453Z,5.30
2018-07-25T09:31:14.962Z,5.60
2018-07-25T09:33:43.494Z,5.13
2018-07-25T09:36:11.982Z,4.87
2018-07-25T09:38:40.544Z,5.80
2018-07-25T09:41:09.194Z,4.73
2018-07-25T09:43:37.622Z,4.77
2018-07-25T09:46:06.188Z,5.47
2018-07-25T09:48:34.736Z,5.20
2018-07-25T09:51:03.460Z,6.07
2018-07-25T09:53:31.925Z,5.70
2018-07-25T09:56:00.480Z,5.87
2018-07-25T09:58:28.985Z,6.20
2018-07-25T10:00:58.443Z,5.80
2018-07-25T10:03:26.998Z,6.30
2018-07-25T10:05:55.546Z,5.90
2018-07-25T10:08:24.121Z,5.70
2018-07-25T10:10:52.620Z,6.03
2018-07-25T10:13:21.248Z,5.67
2018-07-25T10:15:49.828Z,5.43
2018-07-25T10:18:18.131Z,5.50
2018-07-25T10:20:46.786Z,5.70
2018-07-25T10:23:15.177Z,5.90
2018-07-25T10:25:43.728Z,5.37
2018-07-25T10:28:12.300Z,4.67
2018-07-25T10:30:40.844Z,4.97
2018-07-25T10:33:10.209Z,5.97
2018-07-25T10:35:38.817Z,4.97
2018-07-25T10:38:07.400Z,5.00
2018-07-25T10:40:35.976Z,5.37
2018-07-25T10:43:04.504Z,5.70
2018-07-25T10:45:32.997Z,5.40
2018-07-25T10:48:02.067Z,4.37
2018-07-25T10:50:30.648Z,4.23
2018-07-25T10:52:59.236Z,4.90
2018-07-25T10:55:28.239Z,4.43
2018-07-25T10:57:56.724Z,4.60
2018-07-25T11:00:25.405Z,4.63
2018-07-25T11:02:53.906Z,5.17
2018-07-25T11:05:22.444Z,5.43
2018-07-25T11:07:50.916Z,4.77
2018-07-25T11:10:19.586Z,4.47
2018-07-25T11:12:48.129Z,4.60
2018-07-25T11:15:16.636Z,4.67
2018-07-25T11:17:45.136Z,4.03
2018-07-25T11:20:13.677Z,3.90
2018-07-25T11:22:42.094Z,4.20
2018-07-25T11:25:10.532Z,3.73
2018-07-25T11:27:38.960Z,3.37
2018-07-25T11:30:07.645Z,3.80
2018-07-25T11:32:36.224Z,3.70
2018-07-25T11:35:04.744Z,4.50
2018-07-25T11:37:33.875Z,4.43
2018-07-25T11:40:02.420Z,4.57
2018-07-25T11:42:30.906Z,4.30
2018-07-25T11:44:59.375Z,4.10
2018-07-25T11:47:27.651Z,4.43
2018-07-25T11:49:55.934Z,3.90
2018-07-25T11:52:24.454Z,4.27
2018-07-25T11:54:52.899Z,4.30
2018-07-25T11:57:21.185Z,4.37
2018-07-25T11:59:49.392Z,4.43
2018-07-25T12:02:17.970Z,3.73
2018-07-25T12:04:46.621Z,3.90
2018-07-25T12:07:14.835Z,3.90
2018-07-25T12:09:43.461Z,3.97
2018-07-25T12:12:11.900Z,4.30
2018-07-25T12:14:40.340Z,3.57
2018-07-25T12:17:08.807Z,4.00
2018-07-25T12:19:36.980Z,4.10
2018-07-25T12:22:05.784Z,3.67
2018-07-25T12:24:35.048Z,3.43
2018-07-25T12:27:04.194Z,4.50
2018-07-25T12:29:32.700Z,3.73
2018-07-25T12:32:01.210Z,3.77
2018-07-25T12:34:29.608Z,3.73
2018-07-25T12:36:58.324Z,4.10
2018-07-25T12:39:26.825Z,3.23
2018-07-25T12:41:55.240Z,3.97
2018-07-25T12:44:23.669Z,3.77
2018-07-25T12:46:52.117Z,3.73
2018-07-25T12:49:20.585Z,3.70
2018-07-25T12:51:49.108Z,3.50
2018-07-25T12:54:17.733Z,3.43
2018-07-25T12:56:46.372Z,3.40
2018-07-25T12:59:14.902Z,4.33
2018-07-25T13:01:43.384Z,3.17
2018-07-25T13:04:11.931Z,3.60
2018-07-25T13:06:40.114Z,3.63
2018-07-25T13:09:10.844Z,3.30
2018-07-25T13:11:39.369Z,3.30
2018-07-25T13:14:08.318Z,4.60
2018-07-25T13:16:37.257Z,4.60
2018-07-25T13:19:06.913Z,4.10
2018-07-25T13:21:35.888Z,4.17
2018-07-25T13:24:04.361Z,4.00
2018-07-25T13:26:33.026Z,3.47
2018-07-25T13:29:01.666Z,3.80
2018-07-25T13:31:30.815Z,3.83
2018-07-25T13:33:59.391Z,3.80
2018-07-25T13:36:27.877Z,3.90
2018-07-25T13:38:56.352Z,3.47
2018-07-25T13:41:25.893Z,3.83
2018-07-25T13:43:54.391Z,3.93
2018-07-25T13:46:23.522Z,3.10
2018-07-25T13:48:51.953Z,3.70
2018-07-25T13:51:20.475Z,3.73
2018-07-25T13:53:48.978Z,3.70
2018-07-25T13:56:17.525Z,3.20
2018-07-25T13:58:46.061Z,3.00
2018-07-25T14:01:14.775Z,3.00
2018-07-25T14:03:43.311Z,3.60
2018-07-25T14:06:11.836Z,3.47
2018-07-25T14:08:40.533Z,3.30
2018-07-25T14:11:10.594Z,3.00
2018-07-25T14:13:39.316Z,3.00
2018-07-25T14:16:08.337Z,3.37
2018-07-25T14:18:37.000Z,2.87
2018-07-25T14:21:05.556Z,2.70
2018-07-25T14:23:34.204Z,3.50
2018-07-25T14:26:02.642Z,2.90
2018-07-25T14:28:31.145Z,3.07
2018-07-25T14:30:59.621Z,3.30
2018-07-25T14:33:28.374Z,21.70
2018-07-25T14:35:56.875Z,12.43
2018-07-25T14:38:25.465Z,3.63
2018-07-25T14:40:53.916Z,3.20
2018-07-25T14:43:22.463Z,3.00
2018-07-25T14:45:50.948Z,3.10
2018-07-25T14:48:19.649Z,3.73
2018-07-25T14:50:48.113Z,3.27
2018-07-25T14:53:16.626Z,3.40
2018-07-25T14:55:45.092Z,2.57
2018-07-25T14:58:13.601Z,3.73
2018-07-25T15:00:42.125Z,3.27
2018-07-25T15:03:10.646Z,3.17
2018-07-25T15:05:39.184Z,2.73
2018-07-25T15:08:07.677Z,2.47
2018-07-25T15:10:36.246Z,2.77
2018-07-25T15:13:04.984Z,2.90
2018-07-25T15:15:33.600Z,3.13
2018-07-25T15:18:02.288Z,2.70
2018-07-25T15:20:31.329Z,2.80
2018-07-25T15:22:59.880Z,3.07
2018-07-25T15:25:28.432Z,2.60
2018-07-25T15:27:57.120Z,2.50
2018-07-25T15:30:25.581Z,2.63
2018-07-25T15:32:54.164Z,2.43
2018-07-25T15:35:22.804Z,3.20
2018-07-25T15:37:51.315Z,2.63
2018-07-25T15:40:19.844Z,3.10
2018-07-25T15:42:48.358Z,2.90
2018-07-25T15:45:16.901Z,2.70
2018-07-25T15:47:45.385Z,2.97
2018-07-25T15:50:13.982Z,2.50
2018-07-25T15:52:42.691Z,4.00
2018-07-25T15:55:11.396Z,4.70
2018-07-25T15:57:39.626Z,4.17
2018-07-25T16:00:08.753Z,3.60
2018-07-25T16:02:37.685Z,4.30
2018-07-25T16:05:06.165Z,4.10
2018-07-25T16:07:34.691Z,4.07
2018-07-25T16:10:03.266Z,4.50
2018-07-25T16:12:31.716Z,3.97
2018-07-25T16:15:00.284Z,4.33
2018-07-25T16:17:29.293Z,4.57
2018-07-25T16:19:57.803Z,4.47
2018-07-25T16:22:26.280Z,4.70
2018-07-25T16:24:55.025Z,4.40
2018-07-25T16:27:24.329Z,3.97
2018-07-25T16:29:52.808Z,3.80
2018-07-25T16:32:21.380Z,4.00
2018-07-25T16:34:49.893Z,4.50
2018-07-25T16:37:18.361Z,4.23
2018-07-25T16:39:46.820Z,3.93
2018-07-25T16:42:15.264Z,3.93
2018-07-25T16:44:43.737Z,4.30
2018-07-25T16:47:12.185Z,3.97
2018-07-25T16:49:40.794Z,4.00
2018-07-25T16:52:09.253Z,3.47
2018-07-25T16:54:38.101Z,3.90
2018-07-25T16:57:06.640Z,4.10
2018-07-25T16:59:35.225Z,4.40
2018-07-25T17:02:03.803Z,3.77
2018-07-25T17:04:32.305Z,4.60
2018-07-25T17:07:00.882Z,4.27
2018-07-25T17:09:29.320Z,3.70
2018-07-25T17:11:57.794Z,4.13
2018-07-25T17:14:26.269Z,4.57
2018-07-25T17:16:54.749Z,4.50
2018-07-25T17:19:23.162Z,4.40
2018-07-25T17:21:51.639Z,4.40
2018-07-25T17:24:20.070Z,4.00
2018-07-25T17:26:48.524Z,3.93
2018-07-25T17:29:17.089Z,3.80
2018-07-25T17:31:45.643Z,4.30
2018-07-25T17:34:14.110Z,4.53
2018-07-25T17:36:42.621Z,4.60
2018-07-25T17:39:11.917Z,4.47
2018-07-25T17:41:41.588Z,4.77
2018-07-25T17:44:10.097Z,5.20
2018-07-25T17:46:39.177Z,5.00
2018-07-25T17:49:07.633Z,4.73
2018-07-25T17:51:36.097Z,4.30
2018-07-25T17:54:04.572Z,4.37
2018-07-25T17:56:33.340Z,4.83
2018-07-25T17:59:02.451Z,4.60
2018-07-25T18:01:31.617Z,4.67
2018-07-25T18:04:00.117Z,4.20
2018-07-25T18:06:28.588Z,4.10
2018-07-25T18:08:57.092Z,3.90
2018-07-25T18:11:25.284Z,3.53
2018-07-25T18:13:59.115Z,3.97
2018-07-25T18:16:27.660Z,3.83
2018-07-25T18:18:56.493Z,3.70
2018-07-25T18:21:25.044Z,4.63
2018-07-25T18:23:53.600Z,3.67
2018-07-25T18:26:22.080Z,4.90
2018-07-25T18:28:50.544Z,4.00
2018-07-25T18:31:19.165Z,3.50
2018-07-25T18:33:47.669Z,4.83
2018-07-25T18:36:16.165Z,3.80
2018-07-25T18:38:44.662Z,4.00
2018-07-25T18:41:13.189Z,3.97
2018-07-25T18:43:42.493Z,3.77
2018-07-25T18:46:11.328Z,4.03
2018-07-25T18:48:41.037Z,3.70
2018-07-25T18:51:09.602Z,3.83
2018-07-25T18:53:38.348Z,3.53
2018-07-25T18:56:07.295Z,3.70
2018-07-25T18:58:35.779Z,3.90
2018-07-25T19:01:04.316Z,4.10
2018-07-25T19:03:33.370Z,3.83
2018-07-25T19:06:01.862Z,4.50
2018-07-25T19:08:30.282Z,3.97
2018-07-25T19:10:58.714Z,4.00
2018-07-25T19:13:33.368Z,3.77
2018-07-25T19:16:02.707Z,3.97
2018-07-25T19:18:31.185Z,3.47
2018-07-25T19:21:00.005Z,3.90
2018-07-25T19:23:30.082Z,3.83
2018-07-25T19:25:58.679Z,3.77
2018-07-25T19:28:26.865Z,3.80
2018-07-25T19:30:55.274Z,3.33
2018-07-25T19:33:24.163Z,3.80
2018-07-25T19:35:53.137Z,4.60
2018-07-25T19:38:22.758Z,4.43
2018-07-25T19:40:51.258Z,3.87
2018-07-25T19:43:20.225Z,3.47
2018-07-25T19:45:48.781Z,4.70
2018-07-25T19:48:17.368Z,4.23
2018-07-25T19:50:45.753Z,4.10
2018-07-25T19:53:14.676Z,4.00
2018-07-25T19:55:43.342Z,4.20
2018-07-25T19:58:11.529Z,5.00
2018-07-25T20:00:40.107Z,4.43
2018-07-25T20:03:09.139Z,4.80
2018-07-25T20:05:37.788Z,4.60
2018-07-25T20:08:07.845Z,4.93
2018-07-25T20:10:36.328Z,4.27
2018-07-25T20:13:04.843Z,4.07
2018-07-25T20:15:38.777Z,4.90
2018-07-25T20:18:07.379Z,5.20
2018-07-25T20:20:35.782Z,4.93
2018-07-25T20:23:04.650Z,5.10
2018-07-25T20:25:33.539Z,4.40
2018-07-25T20:28:02.457Z,4.87
2018-07-25T20:30:32.365Z,4.63
2018-07-25T20:33:00.894Z,5.03
2018-07-25T20:35:29.500Z,5.70
2018-07-25T20:37:58.303Z,5.20
2018-07-25T20:40:27.385Z,4.60
2018-07-25T20:42:55.894Z,4.60
2018-07-25T20:45:24.347Z,4.57
2018-07-25T20:47:52.846Z,5.20
2018-07-25T20:50:21.432Z,4.80
2018-07-25T20:52:50.313Z,4.83
2018-07-25T20:55:19.315Z,4.43
2018-07-25T20:57:48.319Z,4.20
2018-07-25T21:00:19.003Z,5.40
2018-07-25T21:02:47.833Z,5.33
2018-07-25T21:05:16.400Z,5.70
2018-07-25T21:07:45.035Z,5.07
2018-07-25T21:10:13.632Z,5.57
2018-07-25T21:12:42.084Z,5.67
2018-07-25T21:15:10.543Z,4.90
2018-07-25T21:17:38.992Z,5.03
2018-07-25T21:20:07.456Z,5.97
2018-07-25T21:22:36.011Z,5.40
2018-07-25T21:25:05.085Z,5.10
2018-07-25T21:27:34.109Z,5.33
2018-07-25T21:30:02.603Z,3.83
2018-07-25T21:32:31.156Z,5.40
2018-07-25T21:34:59.636Z,4.40
2018-07-25T21:37:28.084Z,4.67
2018-07-25T21:39:56.633Z,4.73
2018-07-25T21:42:25.108Z,4.80
2018-07-25T21:44:54.128Z,4.53
2018-07-25T21:47:22.627Z,5.00
2018-07-25T21:49:51.064Z,4.83
2018-07-25T21:52:19.570Z,4.77
2018-07-25T21:54:48.038Z,4.30
2018-07-25T21:57:16.496Z,5.03
2018-07-25T21:59:45.000Z,4.37
2018-07-25T22:02:14.128Z,4.47
2018-07-25T22:04:42.855Z,4.60
2018-07-25T22:07:11.316Z,4.30
2018-07-25T22:09:39.759Z,4.53
2018-07-25T22:12:08.270Z,4.40
2018-07-25T22:14:36.798Z,4.00
2018-07-25T22:17:05.789Z,4.27
2018-07-25T22:19:34.312Z,4.37
2018-07-25T22:22:03.484Z,4.47
2018-07-25T22:24:31.927Z,4.30
2018-07-25T22:27:00.377Z,4.43
2018-07-25T22:29:28.834Z,4.50
2018-07-25T22:31:57.353Z,5.10
2018-07-25T22:34:25.777Z,5.17
2018-07-25T22:36:54.286Z,4.60
2018-07-25T22:39:22.870Z,4.87
2018-07-25T22:41:51.363Z,4.40
2018-07-25T22:44:19.844Z,6.50
2018-07-25T22:46:48.291Z,5.00
2018-07-25T22:49:16.825Z,5.27
2018-07-25T22:51:45.245Z,5.67
2018-07-25T22:54:13.733Z,4.70
2018-07-25T22:56:42.264Z,5.17
2018-07-25T22:59:10.729Z,5.10
2018-07-25T23:01:39.212Z,5.30
2018-07-25T23:04:07.761Z,5.37
2018-07-25T23:06:36.232Z,5.97
2018-07-25T23:09:07.952Z,5.50
2018-07-25T23:11:36.545Z,5.93
2018-07-25T23:14:05.019Z,5.90
2018-07-25T23:16:33.484Z,5.43
2018-07-25T23:19:01.970Z,5.07
2018-07-25T23:21:30.425Z,5.03
2018-07-25T23:23:58.888Z,5.87
2018-07-25T23:26:27.696Z,5.30
2018-07-25T23:28:56.136Z,5.60
2018-07-25T23:31:24.596Z,5.80
2018-07-25T23:33:53.042Z,5.70
2018-07-25T23:36:21.553Z,5.60
2018-07-25T23:38:50.065Z,4.93
2018-07-25T23:41:18.516Z,5.33
2018-07-25T23:43:46.948Z,6.00
2018-07-25T23:46:15.444Z,6.43
2018-07-25T23:48:43.881Z,5.60
2018-07-25T23:51:12.356Z,5.77
2018-07-25T23:53:40.820Z,6.30
2018-07-25T23:56:09.356Z,5.70
2018-07-25T23:58:38.045Z,6.10
